Auberry, California
Current Conditions -  °F | °C
As of 9:53 PM on Saturday 20 Dec 2014 (Local Time) from KFAT Reporting Station
Few Clouds Few Clouds  
Wind Chill: 54°   Ceiling: Unl
Heat Index: 54°   Visibility: 8mi
Dew Point: 51°   Wind: 5mph
Humidity: 90%   Direction: 350°N
Pressure: 30.27"   Gusts: NA
Location:  37.08°N, 119.49°W
Report Text: KFAT 210553Z 35004KT 8SM FEW085 12/11 A3027 RMK AO2 SLP249 T01220106 10156 20117 53010
Loading
Personal Weather Stations






























Interactive Weather Map New forecast layout! Learn more

10-Day Weather Forecast

Advertisements
Track Severe Weather on mobile